createdAt,value
2022-12-08T00:00:22.387Z,23.50
2022-12-08T00:10:47.948Z,23.50
2022-12-08T00:20:22.362Z,23.10
2022-12-08T00:30:22.369Z,24.40
2022-12-08T00:40:22.397Z,27.20
2022-12-08T00:50:22.386Z,25.60
2022-12-08T01:00:22.375Z,23.70
2022-12-08T01:10:22.399Z,24.90
2022-12-08T01:20:22.377Z,24.10
2022-12-08T01:30:22.390Z,23.20
2022-12-08T01:40:22.381Z,25.00
2022-12-08T01:50:22.394Z,23.00
2022-12-08T02:00:22.402Z,25.10
2022-12-08T02:10:22.423Z,23.90
2022-12-08T02:20:22.389Z,22.40
2022-12-08T02:30:22.400Z,22.70
2022-12-08T03:30:22.487Z,20.80
2022-12-08T03:40:22.424Z,21.90
2022-12-08T03:50:22.463Z,22.60
2022-12-08T04:00:22.428Z,20.90
2022-12-08T04:10:22.469Z,20.60
2022-12-08T04:20:22.446Z,21.60
2022-12-08T04:30:22.467Z,19.80
2022-12-08T04:40:22.474Z,20.80
2022-12-08T04:50:22.474Z,18.70
2022-12-08T05:00:22.470Z,19.30
2022-12-08T05:10:22.474Z,18.00
2022-12-08T05:20:22.468Z,20.50
2022-12-08T05:30:22.486Z,21.60
2022-12-08T05:40:22.485Z,21.80
2022-12-08T05:50:22.496Z,26.50
2022-12-08T06:00:22.505Z,33.00
2022-12-08T06:10:22.468Z,27.70
2022-12-08T06:20:22.496Z,26.90
2022-12-08T06:30:22.507Z,26.10
2022-12-08T06:50:22.739Z,22.20
2022-12-08T07:00:22.501Z,27.20
2022-12-08T07:10:22.494Z,26.80
2022-12-08T07:20:22.484Z,25.90
2022-12-08T07:30:22.488Z,31.90
2022-12-08T07:40:22.502Z,32.40
2022-12-08T07:50:22.522Z,28.10
2022-12-08T08:00:22.534Z,27.50
2022-12-08T08:10:22.529Z,28.70
2022-12-08T08:20:22.539Z,28.00
2022-12-08T08:30:22.510Z,22.20
2022-12-08T08:40:22.518Z,27.30
2022-12-08T08:50:22.544Z,24.30
2022-12-08T09:00:22.526Z,25.70
2022-12-08T09:10:22.638Z,24.10
2022-12-08T09:20:22.548Z,28.50
2022-12-08T09:30:22.636Z,27.40
2022-12-08T09:40:22.659Z,22.80
2022-12-08T09:50:22.697Z,24.90
2022-12-08T10:00:22.577Z,21.70
2022-12-08T10:10:22.569Z,22.40
2022-12-08T10:20:22.579Z,24.40
2022-12-08T10:30:22.582Z,22.20
2022-12-08T10:40:22.562Z,23.00
2022-12-08T10:50:22.594Z,22.00
2022-12-08T11:00:22.684Z,19.10
2022-12-08T11:10:22.563Z,20.20
2022-12-08T11:20:22.613Z,19.80
2022-12-08T11:30:22.571Z,18.20
2022-12-08T11:40:22.574Z,19.40
2022-12-08T11:50:22.603Z,19.30
2022-12-08T12:00:22.603Z,18.40
2022-12-08T12:10:22.626Z,26.10
2022-12-08T12:20:22.593Z,17.90
2022-12-08T12:30:22.615Z,20.10
2022-12-08T12:40:22.609Z,19.40
2022-12-08T12:50:22.597Z,17.60
2022-12-08T13:00:22.660Z,19.20
2022-12-08T13:10:22.632Z,20.20
2022-12-08T13:20:22.619Z,22.00
2022-12-08T13:30:22.619Z,19.40
2022-12-08T13:40:22.659Z,20.40
2022-12-08T13:51:07.054Z,21.80
2022-12-08T14:00:22.653Z,23.30
2022-12-08T14:10:22.653Z,24.60
2022-12-08T14:20:22.661Z,24.80
2022-12-08T14:30:22.796Z,26.40
2022-12-08T14:40:23.514Z,25.20
2022-12-08T14:50:22.720Z,25.90
2022-12-08T15:00:22.659Z,28.20
2022-12-08T15:10:22.675Z,36.60
2022-12-08T15:20:22.692Z,31.00
2022-12-08T15:30:22.808Z,32.70
2022-12-08T15:40:22.774Z,28.80
2022-12-08T15:50:22.770Z,30.40
2022-12-08T16:00:50.507Z,26.00
2022-12-08T16:10:22.847Z,27.20
2022-12-08T16:20:32.770Z,30.40
2022-12-08T16:30:22.753Z,31.60
2022-12-08T16:40:22.696Z,31.40
2022-12-08T16:50:22.719Z,32.00
2022-12-08T17:00:22.821Z,23.40
2022-12-08T17:10:22.682Z,32.90
2022-12-08T17:20:22.719Z,34.60
2022-12-08T17:30:22.716Z,35.70
2022-12-08T17:40:25.553Z,34.70
2022-12-08T17:50:22.700Z,36.00
2022-12-08T18:00:22.731Z,32.50
2022-12-08T18:10:22.755Z,35.90
2022-12-08T18:20:22.704Z,33.50
2022-12-08T18:30:22.740Z,29.90
2022-12-08T18:40:22.744Z,30.70
2022-12-08T18:50:22.744Z,45.50
2022-12-08T19:00:22.726Z,36.00
2022-12-08T19:10:22.757Z,31.10
2022-12-08T19:20:22.908Z,35.00
2022-12-08T19:30:22.880Z,38.40
2022-12-08T19:40:22.810Z,35.80
2022-12-08T19:50:22.802Z,29.60
2022-12-08T20:00:22.790Z,37.00
2022-12-08T20:10:22.779Z,40.30
2022-12-08T20:20:22.753Z,32.40
2022-12-08T20:30:22.826Z,36.80
2022-12-08T20:40:22.827Z,39.70
2022-12-08T20:50:23.074Z,37.10
2022-12-08T21:00:22.950Z,34.20
2022-12-08T21:10:23.153Z,37.80
2022-12-08T21:20:22.868Z,33.20
2022-12-08T21:30:23.015Z,33.80
2022-12-08T21:40:22.913Z,37.90
2022-12-08T21:50:22.803Z,27.40
2022-12-08T22:00:23.155Z,38.00
2022-12-08T22:10:22.813Z,39.00
2022-12-08T22:20:23.044Z,36.60
2022-12-08T22:30:22.808Z,40.40
2022-12-08T22:40:22.788Z,33.50
2022-12-08T22:50:22.788Z,33.70
2022-12-08T23:00:22.829Z,39.30
2022-12-08T23:10:22.995Z,37.80
2022-12-08T23:20:22.951Z,40.50
2022-12-08T23:40:22.923Z,38.10
2022-12-08T23:50:22.984Z,35.60
